sensor_id;sensor_type;location;lat;lon;timestamp;P1;durP1;ratioP1;P2;durP2;ratioP2
52764;SDS011;38650;44.536;18.664;2024-03-22T00:00:28;29.60;;;24.20;;
52764;SDS011;38650;44.536;18.664;2024-03-22T00:02:54;30.45;;;24.42;;
52764;SDS011;38650;44.536;18.664;2024-03-22T00:05:20;28.40;;;23.10;;
52764;SDS011;38650;44.536;18.664;2024-03-22T00:07:47;33.10;;;25.52;;
52764;SDS011;38650;44.536;18.664;2024-03-22T00:10:13;41.90;;;33.53;;
52764;SDS011;38650;44.536;18.664;2024-03-22T00:12:39;41.17;;;33.42;;
52764;SDS011;38650;44.536;18.664;2024-03-22T00:15:05;38.20;;;29.98;;
52764;SDS011;38650;44.536;18.664;2024-03-22T00:17:31;37.65;;;30.25;;
52764;SDS011;38650;44.536;18.664;2024-03-22T00:19:58;37.83;;;30.10;;
52764;SDS011;38650;44.536;18.664;2024-03-22T00:22:25;33.05;;;27.48;;
52764;SDS011;38650;44.536;18.664;2024-03-22T00:24:50;32.33;;;25.38;;
52764;SDS011;38650;44.536;18.664;2024-03-22T00:27:16;34.22;;;28.15;;
52764;SDS011;38650;44.536;18.664;2024-03-22T00:29:42;37.15;;;28.70;;
52764;SDS011;38650;44.536;18.664;2024-03-22T00:32:07;32.50;;;28.35;;
52764;SDS011;38650;44.536;18.664;2024-03-22T00:34:34;30.13;;;24.48;;
52764;SDS011;38650;44.536;18.664;2024-03-22T00:37:00;27.52;;;23.52;;
52764;SDS011;38650;44.536;18.664;2024-03-22T00:39:25;28.20;;;22.42;;
52764;SDS011;38650;44.536;18.664;2024-03-22T00:41:51;23.95;;;19.88;;
52764;SDS011;38650;44.536;18.664;2024-03-22T00:44:17;20.50;;;18.27;;
52764;SDS011;38650;44.536;18.664;2024-03-22T00:46:42;18.40;;;16.40;;
52764;SDS011;38650;44.536;18.664;2024-03-22T00:49:08;19.40;;;16.10;;
52764;SDS011;38650;44.536;18.664;2024-03-22T00:51:34;22.35;;;17.15;;
52764;SDS011;38650;44.536;18.664;2024-03-22T00:53:59;19.23;;;15.15;;
52764;SDS011;38650;44.536;18.664;2024-03-22T00:56:25;18.20;;;15.32;;
52764;SDS011;38650;44.536;18.664;2024-03-22T00:58:51;16.95;;;14.57;;
52764;SDS011;38650;44.536;18.664;2024-03-22T01:01:17;19.50;;;16.40;;
52764;SDS011;38650;44.536;18.664;2024-03-22T01:03:42;21.70;;;19.30;;
52764;SDS011;38650;44.536;18.664;2024-03-22T01:06:08;27.60;;;23.98;;
52764;SDS011;38650;44.536;18.664;2024-03-22T01:08:35;23.52;;;20.38;;
52764;SDS011;38650;44.536;18.664;2024-03-22T01:11:01;24.52;;;21.75;;
52764;SDS011;38650;44.536;18.664;2024-03-22T01:13:27;22.20;;;19.83;;
52764;SDS011;38650;44.536;18.664;2024-03-22T01:15:52;20.08;;;16.90;;
52764;SDS011;38650;44.536;18.664;2024-03-22T01:18:18;19.33;;;17.33;;
52764;SDS011;38650;44.536;18.664;2024-03-22T01:20:44;17.88;;;15.07;;
52764;SDS011;38650;44.536;18.664;2024-03-22T01:23:09;16.00;;;13.93;;
52764;SDS011;38650;44.536;18.664;2024-03-22T01:25:35;16.00;;;14.30;;
52764;SDS011;38650;44.536;18.664;2024-03-22T01:28:01;19.13;;;15.85;;
52764;SDS011;38650;44.536;18.664;2024-03-22T01:30:26;18.50;;;15.77;;
52764;SDS011;38650;44.536;18.664;2024-03-22T01:32:54;15.32;;;13.73;;
52764;SDS011;38650;44.536;18.664;2024-03-22T01:35:20;18.25;;;15.10;;
52764;SDS011;38650;44.536;18.664;2024-03-22T01:37:45;17.52;;;14.68;;
52764;SDS011;38650;44.536;18.664;2024-03-22T01:40:12;15.32;;;13.35;;
52764;SDS011;38650;44.536;18.664;2024-03-22T01:42:38;14.07;;;12.18;;
52764;SDS011;38650;44.536;18.664;2024-03-22T01:45:04;18.85;;;16.83;;
52764;SDS011;38650;44.536;18.664;2024-03-22T01:47:31;19.38;;;15.60;;
52764;SDS011;38650;44.536;18.664;2024-03-22T01:49:57;16.45;;;14.07;;
52764;SDS011;38650;44.536;18.664;2024-03-22T01:52:23;15.00;;;13.40;;
52764;SDS011;38650;44.536;18.664;2024-03-22T01:54:49;14.65;;;13.05;;
52764;SDS011;38650;44.536;18.664;2024-03-22T01:57:15;15.05;;;12.35;;
52764;SDS011;38650;44.536;18.664;2024-03-22T01:59:41;14.35;;;12.55;;
52764;SDS011;38650;44.536;18.664;2024-03-22T02:02:07;12.50;;;11.20;;
52764;SDS011;38650;44.536;18.664;2024-03-22T02:04:32;12.35;;;10.90;;
52764;SDS011;38650;44.536;18.664;2024-03-22T02:06:58;12.85;;;10.70;;
52764;SDS011;38650;44.536;18.664;2024-03-22T02:09:24;13.70;;;11.48;;
52764;SDS011;38650;44.536;18.664;2024-03-22T02:11:50;11.00;;;9.82;;
52764;SDS011;38650;44.536;18.664;2024-03-22T02:14:16;10.98;;;9.70;;
52764;SDS011;38650;44.536;18.664;2024-03-22T02:16:42;10.00;;;8.98;;
52764;SDS011;38650;44.536;18.664;2024-03-22T02:19:08;8.57;;;7.72;;
52764;SDS011;38650;44.536;18.664;2024-03-22T02:21:34;10.23;;;8.13;;
52764;SDS011;38650;44.536;18.664;2024-03-22T02:24:00;11.13;;;9.20;;
52764;SDS011;38650;44.536;18.664;2024-03-22T02:26:25;8.85;;;7.95;;
52764;SDS011;38650;44.536;18.664;2024-03-22T02:28:51;15.77;;;14.10;;
52764;SDS011;38650;44.536;18.664;2024-03-22T02:31:17;17.30;;;14.05;;
52764;SDS011;38650;44.536;18.664;2024-03-22T02:33:43;16.52;;;13.23;;
52764;SDS011;38650;44.536;18.664;2024-03-22T02:36:09;19.58;;;16.30;;
52764;SDS011;38650;44.536;18.664;2024-03-22T02:38:34;24.75;;;21.05;;
52764;SDS011;38650;44.536;18.664;2024-03-22T02:41:00;22.20;;;19.80;;
52764;SDS011;38650;44.536;18.664;2024-03-22T02:43:26;18.98;;;15.95;;
52764;SDS011;38650;44.536;18.664;2024-03-22T02:45:51;15.43;;;13.55;;
52764;SDS011;38650;44.536;18.664;2024-03-22T02:48:17;14.18;;;12.63;;
52764;SDS011;38650;44.536;18.664;2024-03-22T02:50:43;12.60;;;11.18;;
52764;SDS011;38650;44.536;18.664;2024-03-22T02:53:08;10.73;;;9.73;;
52764;SDS011;38650;44.536;18.664;2024-03-22T02:55:38;11.10;;;9.77;;
52764;SDS011;38650;44.536;18.664;2024-03-22T02:58:04;9.85;;;8.73;;
52764;SDS011;38650;44.536;18.664;2024-03-22T03:00:31;9.52;;;8.52;;
52764;SDS011;38650;44.536;18.664;2024-03-22T03:03:00;9.68;;;8.35;;
52764;SDS011;38650;44.536;18.664;2024-03-22T03:05:25;9.40;;;8.25;;
52764;SDS011;38650;44.536;18.664;2024-03-22T03:07:51;8.32;;;7.53;;
52764;SDS011;38650;44.536;18.664;2024-03-22T03:10:17;7.55;;;6.85;;
52764;SDS011;38650;44.536;18.664;2024-03-22T03:12:42;9.80;;;8.80;;
52764;SDS011;38650;44.536;18.664;2024-03-22T03:15:08;10.50;;;9.40;;
52764;SDS011;38650;44.536;18.664;2024-03-22T03:17:34;10.23;;;8.57;;
52764;SDS011;38650;44.536;18.664;2024-03-22T03:20:00;10.65;;;9.07;;
52764;SDS011;38650;44.536;18.664;2024-03-22T03:22:25;10.32;;;8.95;;
52764;SDS011;38650;44.536;18.664;2024-03-22T03:24:51;13.60;;;11.63;;
52764;SDS011;38650;44.536;18.664;2024-03-22T03:27:17;11.00;;;9.88;;
52764;SDS011;38650;44.536;18.664;2024-03-22T03:29:42;11.77;;;10.35;;
52764;SDS011;38650;44.536;18.664;2024-03-22T03:32:08;9.98;;;8.95;;
52764;SDS011;38650;44.536;18.664;2024-03-22T03:34:34;9.93;;;8.93;;
52764;SDS011;38650;44.536;18.664;2024-03-22T03:36:59;10.07;;;8.77;;
52764;SDS011;38650;44.536;18.664;2024-03-22T03:39:26;8.80;;;7.70;;
52764;SDS011;38650;44.536;18.664;2024-03-22T03:41:54;8.02;;;7.22;;
52764;SDS011;38650;44.536;18.664;2024-03-22T03:44:20;8.27;;;7.47;;
52764;SDS011;38650;44.536;18.664;2024-03-22T03:46:45;7.68;;;6.85;;
52764;SDS011;38650;44.536;18.664;2024-03-22T03:49:11;7.57;;;6.78;;
52764;SDS011;38650;44.536;18.664;2024-03-22T03:51:37;7.45;;;6.50;;
52764;SDS011;38650;44.536;18.664;2024-03-22T03:54:02;7.55;;;6.70;;
52764;SDS011;38650;44.536;18.664;2024-03-22T03:56:29;6.45;;;5.80;;
52764;SDS011;38650;44.536;18.664;2024-03-22T03:58:54;8.05;;;7.03;;
52764;SDS011;38650;44.536;18.664;2024-03-22T04:01:20;10.40;;;9.10;;
52764;SDS011;38650;44.536;18.664;2024-03-22T04:03:48;14.35;;;10.23;;
52764;SDS011;38650;44.536;18.664;2024-03-22T04:06:14;12.32;;;9.73;;
52764;SDS011;38650;44.536;18.664;2024-03-22T04:08:39;9.88;;;8.15;;
52764;SDS011;38650;44.536;18.664;2024-03-22T04:11:05;8.50;;;7.60;;
52764;SDS011;38650;44.536;18.664;2024-03-22T04:13:31;8.45;;;7.00;;
52764;SDS011;38650;44.536;18.664;2024-03-22T04:15:58;8.00;;;7.15;;
52764;SDS011;38650;44.536;18.664;2024-03-22T04:18:24;7.72;;;6.93;;
52764;SDS011;38650;44.536;18.664;2024-03-22T04:20:56;7.82;;;6.93;;
52764;SDS011;38650;44.536;18.664;2024-03-22T04:23:23;6.70;;;6.00;;
52764;SDS011;38650;44.536;18.664;2024-03-22T04:25:53;7.43;;;6.53;;
52764;SDS011;38650;44.536;18.664;2024-03-22T04:28:29;7.65;;;6.60;;
52764;SDS011;38650;44.536;18.664;2024-03-22T04:33:28;8.37;;;6.93;;
52764;SDS011;38650;44.536;18.664;2024-03-22T04:35:55;7.03;;;6.07;;
52764;SDS011;38650;44.536;18.664;2024-03-22T04:38:22;6.50;;;5.80;;
52764;SDS011;38650;44.536;18.664;2024-03-22T04:40:48;8.07;;;6.03;;
52764;SDS011;38650;44.536;18.664;2024-03-22T04:43:14;6.95;;;6.30;;
52764;SDS011;38650;44.536;18.664;2024-03-22T04:45:44;7.65;;;6.32;;
52764;SDS011;38650;44.536;18.664;2024-03-22T04:48:12;6.75;;;6.15;;
52764;SDS011;38650;44.536;18.664;2024-03-22T04:50:46;6.35;;;5.72;;
52764;SDS011;38650;44.536;18.664;2024-03-22T04:53:14;6.28;;;5.43;;
52764;SDS011;38650;44.536;18.664;2024-03-22T04:55:44;6.20;;;5.60;;
52764;SDS011;38650;44.536;18.664;2024-03-22T04:58:20;5.90;;;5.30;;
52764;SDS011;38650;44.536;18.664;2024-03-22T05:00:46;5.38;;;4.88;;
52764;SDS011;38650;44.536;18.664;2024-03-22T05:03:13;5.50;;;5.00;;
52764;SDS011;38650;44.536;18.664;2024-03-22T05:05:39;6.28;;;5.68;;
52764;SDS011;38650;44.536;18.664;2024-03-22T05:08:06;7.20;;;6.47;;
52764;SDS011;38650;44.536;18.664;2024-03-22T05:10:32;7.30;;;6.60;;
52764;SDS011;38650;44.536;18.664;2024-03-22T05:12:58;7.47;;;6.07;;
52764;SDS011;38650;44.536;18.664;2024-03-22T05:15:24;7.78;;;7.00;;
52764;SDS011;38650;44.536;18.664;2024-03-22T05:17:50;6.32;;;5.70;;
52764;SDS011;38650;44.536;18.664;2024-03-22T05:20:16;8.90;;;7.28;;
52764;SDS011;38650;44.536;18.664;2024-03-22T05:22:42;7.07;;;6.38;;
52764;SDS011;38650;44.536;18.664;2024-03-22T05:25:08;7.32;;;6.63;;
52764;SDS011;38650;44.536;18.664;2024-03-22T05:27:35;7.60;;;6.80;;
52764;SDS011;38650;44.536;18.664;2024-03-22T05:30:01;7.22;;;6.53;;
52764;SDS011;38650;44.536;18.664;2024-03-22T05:32:29;8.38;;;7.50;;
52764;SDS011;38650;44.536;18.664;2024-03-22T05:34:54;12.32;;;11.05;;
52764;SDS011;38650;44.536;18.664;2024-03-22T05:37:20;12.23;;;10.98;;
52764;SDS011;38650;44.536;18.664;2024-03-22T05:39:46;13.63;;;12.23;;
52764;SDS011;38650;44.536;18.664;2024-03-22T05:42:12;14.40;;;12.90;;
52764;SDS011;38650;44.536;18.664;2024-03-22T05:44:38;16.50;;;14.80;;
52764;SDS011;38650;44.536;18.664;2024-03-22T05:47:04;15.23;;;13.25;;
52764;SDS011;38650;44.536;18.664;2024-03-22T05:49:30;14.48;;;13.02;;
52764;SDS011;38650;44.536;18.664;2024-03-22T05:51:56;12.10;;;10.90;;
52764;SDS011;38650;44.536;18.664;2024-03-22T05:54:21;11.80;;;10.65;;
52764;SDS011;38650;44.536;18.664;2024-03-22T05:56:47;13.13;;;11.73;;
52764;SDS011;38650;44.536;18.664;2024-03-22T05:59:13;11.00;;;9.90;;
52764;SDS011;38650;44.536;18.664;2024-03-22T06:01:38;11.68;;;10.48;;
52764;SDS011;38650;44.536;18.664;2024-03-22T06:04:04;10.70;;;9.65;;
52764;SDS011;38650;44.536;18.664;2024-03-22T06:06:31;11.27;;;10.18;;
52764;SDS011;38650;44.536;18.664;2024-03-22T06:09:00;10.50;;;9.50;;
52764;SDS011;38650;44.536;18.664;2024-03-22T06:11:29;11.00;;;10.00;;
52764;SDS011;38650;44.536;18.664;2024-03-22T06:13:55;11.23;;;10.20;;
52764;SDS011;38650;44.536;18.664;2024-03-22T06:16:21;12.45;;;11.18;;
52764;SDS011;38650;44.536;18.664;2024-03-22T06:18:47;12.15;;;10.82;;
52764;SDS011;38650;44.536;18.664;2024-03-22T06:21:13;16.33;;;13.63;;
52764;SDS011;38650;44.536;18.664;2024-03-22T06:23:47;14.15;;;12.70;;
52764;SDS011;38650;44.536;18.664;2024-03-22T06:26:16;13.98;;;12.52;;
52764;SDS011;38650;44.536;18.664;2024-03-22T06:28:42;16.63;;;13.93;;
52764;SDS011;38650;44.536;18.664;2024-03-22T06:31:08;12.88;;;11.57;;
52764;SDS011;38650;44.536;18.664;2024-03-22T06:33:34;15.10;;;13.70;;
52764;SDS011;38650;44.536;18.664;2024-03-22T06:36:00;13.27;;;11.95;;
52764;SDS011;38650;44.536;18.664;2024-03-22T06:38:26;14.32;;;12.90;;
52764;SDS011;38650;44.536;18.664;2024-03-22T06:40:52;13.40;;;12.18;;
52764;SDS011;38650;44.536;18.664;2024-03-22T06:43:17;13.70;;;12.40;;
52764;SDS011;38650;44.536;18.664;2024-03-22T06:45:44;14.00;;;12.57;;
52764;SDS011;38650;44.536;18.664;2024-03-22T06:48:09;13.57;;;12.35;;
52764;SDS011;38650;44.536;18.664;2024-03-22T06:50:35;12.05;;;10.85;;
52764;SDS011;38650;44.536;18.664;2024-03-22T06:53:00;13.70;;;12.30;;
52764;SDS011;38650;44.536;18.664;2024-03-22T06:55:26;14.10;;;12.68;;
52764;SDS011;38650;44.536;18.664;2024-03-22T06:57:52;14.30;;;12.90;;
52764;SDS011;38650;44.536;18.664;2024-03-22T07:00:18;14.20;;;12.80;;
52764;SDS011;38650;44.536;18.664;2024-03-22T07:02:48;13.38;;;12.10;;
52764;SDS011;38650;44.536;18.664;2024-03-22T07:05:18;14.52;;;13.10;;
52764;SDS011;38650;44.536;18.664;2024-03-22T07:07:43;15.43;;;13.88;;
52764;SDS011;38650;44.536;18.664;2024-03-22T07:10:09;12.75;;;11.48;;
52764;SDS011;38650;44.536;18.664;2024-03-22T07:12:35;12.88;;;11.60;;
52764;SDS011;38650;44.536;18.664;2024-03-22T07:15:02;13.43;;;12.07;;
52764;SDS011;38650;44.536;18.664;2024-03-22T07:17:37;12.82;;;11.52;;
52764;SDS011;38650;44.536;18.664;2024-03-22T07:20:16;14.68;;;13.20;;
52764;SDS011;38650;44.536;18.664;2024-03-22T07:22:45;12.40;;;11.27;;
52764;SDS011;38650;44.536;18.664;2024-03-22T07:25:12;14.70;;;13.20;;
52764;SDS011;38650;44.536;18.664;2024-03-22T07:27:42;13.02;;;11.63;;
52764;SDS011;38650;44.536;18.664;2024-03-22T07:30:14;12.70;;;11.50;;
52764;SDS011;38650;44.536;18.664;2024-03-22T07:32:45;12.20;;;11.10;;
52764;SDS011;38650;44.536;18.664;2024-03-22T07:35:12;10.32;;;9.45;;
52764;SDS011;38650;44.536;18.664;2024-03-22T07:37:38;9.25;;;8.50;;
52764;SDS011;38650;44.536;18.664;2024-03-22T07:40:04;9.13;;;8.32;;
52764;SDS011;38650;44.536;18.664;2024-03-22T07:42:30;10.38;;;9.43;;
52764;SDS011;38650;44.536;18.664;2024-03-22T07:44:56;9.57;;;8.68;;
52764;SDS011;38650;44.536;18.664;2024-03-22T07:47:22;9.35;;;8.48;;
52764;SDS011;38650;44.536;18.664;2024-03-22T07:49:47;8.43;;;7.70;;
52764;SDS011;38650;44.536;18.664;2024-03-22T07:52:13;8.15;;;7.35;;
52764;SDS011;38650;44.536;18.664;2024-03-22T07:54:39;9.32;;;8.38;;
52764;SDS011;38650;44.536;18.664;2024-03-22T07:57:04;8.32;;;7.63;;
52764;SDS011;38650;44.536;18.664;2024-03-22T07:59:30;7.32;;;6.72;;
52764;SDS011;38650;44.536;18.664;2024-03-22T08:01:57;7.35;;;6.75;;
52764;SDS011;38650;44.536;18.664;2024-03-22T08:04:24;6.75;;;6.07;;
52764;SDS011;38650;44.536;18.664;2024-03-22T08:06:52;7.85;;;6.95;;
52764;SDS011;38650;44.536;18.664;2024-03-22T08:09:18;8.73;;;7.88;;
52764;SDS011;38650;44.536;18.664;2024-03-22T08:11:44;8.25;;;7.53;;
52764;SDS011;38650;44.536;18.664;2024-03-22T08:14:11;9.13;;;8.32;;
52764;SDS011;38650;44.536;18.664;2024-03-22T08:16:37;11.20;;;10.05;;
52764;SDS011;38650;44.536;18.664;2024-03-22T08:19:02;9.25;;;8.40;;
52764;SDS011;38650;44.536;18.664;2024-03-22T08:21:28;8.10;;;7.40;;
52764;SDS011;38650;44.536;18.664;2024-03-22T08:23:54;8.13;;;7.43;;
52764;SDS011;38650;44.536;18.664;2024-03-22T08:26:20;8.00;;;7.20;;
52764;SDS011;38650;44.536;18.664;2024-03-22T08:28:46;7.03;;;6.43;;
52764;SDS011;38650;44.536;18.664;2024-03-22T08:31:12;8.65;;;6.70;;
52764;SDS011;38650;44.536;18.664;2024-03-22T08:33:38;8.20;;;7.40;;
52764;SDS011;38650;44.536;18.664;2024-03-22T08:36:04;8.35;;;7.65;;
52764;SDS011;38650;44.536;18.664;2024-03-22T08:38:30;8.18;;;7.43;;
52764;SDS011;38650;44.536;18.664;2024-03-22T08:40:55;10.63;;;8.73;;
52764;SDS011;38650;44.536;18.664;2024-03-22T08:43:21;9.10;;;8.18;;
52764;SDS011;38650;44.536;18.664;2024-03-22T08:45:50;9.50;;;8.60;;
52764;SDS011;38650;44.536;18.664;2024-03-22T08:48:17;10.13;;;9.13;;
52764;SDS011;38650;44.536;18.664;2024-03-22T08:50:43;11.75;;;9.27;;
52764;SDS011;38650;44.536;18.664;2024-03-22T08:53:09;9.40;;;8.45;;
52764;SDS011;38650;44.536;18.664;2024-03-22T08:55:38;8.55;;;7.72;;
52764;SDS011;38650;44.536;18.664;2024-03-22T08:58:10;8.52;;;7.72;;
52764;SDS011;38650;44.536;18.664;2024-03-22T09:00:35;8.10;;;7.40;;
52764;SDS011;38650;44.536;18.664;2024-03-22T09:03:03;7.93;;;7.13;;
52764;SDS011;38650;44.536;18.664;2024-03-22T09:05:29;7.10;;;6.50;;
52764;SDS011;38650;44.536;18.664;2024-03-22T09:07:56;7.72;;;7.03;;
52764;SDS011;38650;44.536;18.664;2024-03-22T09:10:23;7.90;;;7.15;;
52764;SDS011;38650;44.536;18.664;2024-03-22T09:12:51;8.88;;;6.75;;
52764;SDS011;38650;44.536;18.664;2024-03-22T09:15:17;8.32;;;7.50;;
52764;SDS011;38650;44.536;18.664;2024-03-22T09:17:42;8.77;;;7.97;;
52764;SDS011;38650;44.536;18.664;2024-03-22T09:20:11;7.95;;;7.25;;
52764;SDS011;38650;44.536;18.664;2024-03-22T09:22:40;7.90;;;7.20;;
52764;SDS011;38650;44.536;18.664;2024-03-22T09:25:06;7.40;;;6.70;;
52764;SDS011;38650;44.536;18.664;2024-03-22T09:27:32;9.90;;;8.98;;
52764;SDS011;38650;44.536;18.664;2024-03-22T09:29:58;9.63;;;8.80;;
52764;SDS011;38650;44.536;18.664;2024-03-22T09:32:26;13.50;;;12.30;;
52764;SDS011;38650;44.536;18.664;2024-03-22T09:34:52;16.85;;;11.63;;
52764;SDS011;38650;44.536;18.664;2024-03-22T09:37:18;12.23;;;11.13;;
52764;SDS011;38650;44.536;18.664;2024-03-22T09:39:44;9.32;;;8.43;;
52764;SDS011;38650;44.536;18.664;2024-03-22T09:42:10;9.10;;;8.40;;
52764;SDS011;38650;44.536;18.664;2024-03-22T09:44:48;8.90;;;8.10;;
52764;SDS011;38650;44.536;18.664;2024-03-22T09:47:20;8.25;;;7.45;;
52764;SDS011;38650;44.536;18.664;2024-03-22T09:49:46;7.03;;;6.53;;
52764;SDS011;38650;44.536;18.664;2024-03-22T09:52:14;7.13;;;6.63;;
52764;SDS011;38650;44.536;18.664;2024-03-22T09:54:44;11.15;;;8.93;;
52764;SDS011;38650;44.536;18.664;2024-03-22T09:57:16;8.15;;;7.45;;
52764;SDS011;38650;44.536;18.664;2024-03-22T09:59:44;6.53;;;5.93;;
52764;SDS011;38650;44.536;18.664;2024-03-22T10:02:11;6.65;;;6.15;;
52764;SDS011;38650;44.536;18.664;2024-03-22T10:04:38;6.75;;;6.15;;
52764;SDS011;38650;44.536;18.664;2024-03-22T10:07:10;7.32;;;6.68;;
52764;SDS011;38650;44.536;18.664;2024-03-22T10:09:36;6.47;;;5.88;;
52764;SDS011;38650;44.536;18.664;2024-03-22T10:12:02;7.85;;;6.05;;
52764;SDS011;38650;44.536;18.664;2024-03-22T10:14:29;7.40;;;6.68;;
52764;SDS011;38650;44.536;18.664;2024-03-22T10:16:56;5.53;;;5.03;;
52764;SDS011;38650;44.536;18.664;2024-03-22T10:19:22;6.32;;;5.72;;
52764;SDS011;38650;44.536;18.664;2024-03-22T10:22:00;6.45;;;5.75;;
52764;SDS011;38650;44.536;18.664;2024-03-22T10:24:26;6.13;;;5.63;;
52764;SDS011;38650;44.536;18.664;2024-03-22T10:26:53;7.00;;;6.40;;
52764;SDS011;38650;44.536;18.664;2024-03-22T10:29:19;7.75;;;7.05;;
52764;SDS011;38650;44.536;18.664;2024-03-22T10:31:47;6.70;;;6.10;;
52764;SDS011;38650;44.536;18.664;2024-03-22T10:34:13;5.97;;;5.38;;
52764;SDS011;38650;44.536;18.664;2024-03-22T10:36:40;4.53;;;4.18;;
52764;SDS011;38650;44.536;18.664;2024-03-22T10:39:06;4.55;;;4.15;;
52764;SDS011;38650;44.536;18.664;2024-03-22T10:41:33;4.95;;;4.50;;
52764;SDS011;38650;44.536;18.664;2024-03-22T10:44:00;4.50;;;4.10;;
52764;SDS011;38650;44.536;18.664;2024-03-22T10:46:32;5.10;;;4.60;;
52764;SDS011;38650;44.536;18.664;2024-03-22T10:48:58;7.95;;;7.15;;
52764;SDS011;38650;44.536;18.664;2024-03-22T10:51:24;5.50;;;5.00;;
52764;SDS011;38650;44.536;18.664;2024-03-22T10:53:52;4.60;;;4.30;;
52764;SDS011;38650;44.536;18.664;2024-03-22T10:56:19;5.55;;;4.70;;
52764;SDS011;38650;44.536;18.664;2024-03-22T10:58:47;4.70;;;4.40;;
52764;SDS011;38650;44.536;18.664;2024-03-22T11:01:26;7.38;;;4.70;;
52764;SDS011;38650;44.536;18.664;2024-03-22T11:04:05;5.43;;;4.93;;
52764;SDS011;38650;44.536;18.664;2024-03-22T11:06:39;4.25;;;3.95;;
52764;SDS011;38650;44.536;18.664;2024-03-22T11:09:05;4.47;;;4.07;;
52764;SDS011;38650;44.536;18.664;2024-03-22T11:11:35;4.03;;;3.72;;
52764;SDS011;38650;44.536;18.664;2024-03-22T11:14:06;10.18;;;4.72;;
52764;SDS011;38650;44.536;18.664;2024-03-22T11:16:32;3.90;;;3.60;;
52764;SDS011;38650;44.536;18.664;2024-03-22T11:18:58;3.72;;;3.42;;
52764;SDS011;38650;44.536;18.664;2024-03-22T11:21:23;4.20;;;3.90;;
52764;SDS011;38650;44.536;18.664;2024-03-22T11:23:49;4.40;;;3.90;;
52764;SDS011;38650;44.536;18.664;2024-03-22T11:26:15;4.78;;;4.30;;
52764;SDS011;38650;44.536;18.664;2024-03-22T11:28:41;4.80;;;4.40;;
52764;SDS011;38650;44.536;18.664;2024-03-22T11:31:07;4.90;;;4.40;;
52764;SDS011;38650;44.536;18.664;2024-03-22T11:33:33;4.25;;;3.60;;
52764;SDS011;38650;44.536;18.664;2024-03-22T11:35:59;4.72;;;4.18;;
52764;SDS011;38650;44.536;18.664;2024-03-22T11:38:30;4.43;;;4.13;;
52764;SDS011;38650;44.536;18.664;2024-03-22T11:40:57;4.65;;;4.25;;
52764;SDS011;38650;44.536;18.664;2024-03-22T11:43:24;4.47;;;4.07;;
52764;SDS011;38650;44.536;18.664;2024-03-22T11:45:53;5.25;;;4.85;;
52764;SDS011;38650;44.536;18.664;2024-03-22T11:48:19;4.50;;;4.18;;
52764;SDS011;38650;44.536;18.664;2024-03-22T11:50:46;3.28;;;2.95;;
52764;SDS011;38650;44.536;18.664;2024-03-22T11:53:11;4.15;;;3.22;;
52764;SDS011;38650;44.536;18.664;2024-03-22T11:55:37;3.95;;;3.67;;
52764;SDS011;38650;44.536;18.664;2024-03-22T11:58:03;3.63;;;3.33;;
52764;SDS011;38650;44.536;18.664;2024-03-22T12:00:29;3.00;;;2.80;;
52764;SDS011;38650;44.536;18.664;2024-03-22T12:02:54;3.30;;;2.80;;
52764;SDS011;38650;44.536;18.664;2024-03-22T12:05:20;2.13;;;2.03;;
52764;SDS011;38650;44.536;18.664;2024-03-22T12:07:46;2.70;;;2.50;;
52764;SDS011;38650;44.536;18.664;2024-03-22T12:10:12;2.47;;;2.28;;
52764;SDS011;38650;44.536;18.664;2024-03-22T12:12:38;2.42;;;2.22;;
52764;SDS011;38650;44.536;18.664;2024-03-22T12:15:04;2.70;;;2.50;;
52764;SDS011;38650;44.536;18.664;2024-03-22T12:17:30;3.20;;;2.30;;
52764;SDS011;38650;44.536;18.664;2024-03-22T12:19:56;2.78;;;2.33;;
52764;SDS011;38650;44.536;18.664;2024-03-22T12:22:22;2.60;;;2.40;;
52764;SDS011;38650;44.536;18.664;2024-03-22T12:24:53;2.58;;;2.38;;
52764;SDS011;38650;44.536;18.664;2024-03-22T12:27:19;2.00;;;1.80;;
52764;SDS011;38650;44.536;18.664;2024-03-22T12:29:44;1.98;;;1.88;;
52764;SDS011;38650;44.536;18.664;2024-03-22T12:32:10;2.08;;;1.98;;
52764;SDS011;38650;44.536;18.664;2024-03-22T12:34:36;1.70;;;1.60;;
52764;SDS011;38650;44.536;18.664;2024-03-22T12:37:02;2.28;;;2.08;;
52764;SDS011;38650;44.536;18.664;2024-03-22T12:39:28;2.05;;;1.88;;
52764;SDS011;38650;44.536;18.664;2024-03-22T12:41:53;1.98;;;1.77;;
52764;SDS011;38650;44.536;18.664;2024-03-22T12:44:20;2.00;;;1.90;;
52764;SDS011;38650;44.536;18.664;2024-03-22T12:46:46;2.47;;;2.28;;
52764;SDS011;38650;44.536;18.664;2024-03-22T12:49:12;1.85;;;1.75;;
52764;SDS011;38650;44.536;18.664;2024-03-22T12:51:37;2.53;;;2.28;;
52764;SDS011;38650;44.536;18.664;2024-03-22T12:54:03;2.38;;;1.83;;
52764;SDS011;38650;44.536;18.664;2024-03-22T12:56:30;2.40;;;1.92;;
52764;SDS011;38650;44.536;18.664;2024-03-22T12:58:56;2.63;;;2.05;;
52764;SDS011;38650;44.536;18.664;2024-03-22T13:01:22;2.00;;;1.90;;
52764;SDS011;38650;44.536;18.664;2024-03-22T13:03:48;1.70;;;1.60;;
52764;SDS011;38650;44.536;18.664;2024-03-22T13:06:13;2.58;;;2.20;;
52764;SDS011;38650;44.536;18.664;2024-03-22T13:08:39;2.35;;;2.15;;
52764;SDS011;38650;44.536;18.664;2024-03-22T13:11:05;2.10;;;1.92;;
52764;SDS011;38650;44.536;18.664;2024-03-22T13:13:34;1.85;;;1.75;;
52764;SDS011;38650;44.536;18.664;2024-03-22T13:16:03;2.97;;;2.50;;
52764;SDS011;38650;44.536;18.664;2024-03-22T13:18:29;4.60;;;2.65;;
52764;SDS011;38650;44.536;18.664;2024-03-22T13:20:55;2.67;;;2.47;;
52764;SDS011;38650;44.536;18.664;2024-03-22T13:23:21;2.58;;;2.38;;
52764;SDS011;38650;44.536;18.664;2024-03-22T13:25:47;2.50;;;2.30;;
52764;SDS011;38650;44.536;18.664;2024-03-22T13:28:13;2.80;;;2.60;;
52764;SDS011;38650;44.536;18.664;2024-03-22T13:30:39;2.80;;;2.60;;
52764;SDS011;38650;44.536;18.664;2024-03-22T13:33:05;3.85;;;3.17;;
52764;SDS011;38650;44.536;18.664;2024-03-22T13:35:33;3.20;;;2.45;;
52764;SDS011;38650;44.536;18.664;2024-03-22T13:37:59;2.67;;;2.13;;
52764;SDS011;38650;44.536;18.664;2024-03-22T13:40:26;2.08;;;1.88;;
52764;SDS011;38650;44.536;18.664;2024-03-22T13:42:54;2.28;;;2.08;;
52764;SDS011;38650;44.536;18.664;2024-03-22T13:45:20;2.25;;;2.05;;
52764;SDS011;38650;44.536;18.664;2024-03-22T13:47:46;2.50;;;2.30;;
52764;SDS011;38650;44.536;18.664;2024-03-22T13:50:12;2.90;;;2.70;;
52764;SDS011;38650;44.536;18.664;2024-03-22T13:52:38;2.08;;;1.98;;
52764;SDS011;38650;44.536;18.664;2024-03-22T13:55:04;2.35;;;2.20;;
52764;SDS011;38650;44.536;18.664;2024-03-22T13:57:30;2.15;;;2.05;;
52764;SDS011;38650;44.536;18.664;2024-03-22T13:59:56;2.25;;;2.10;;
52764;SDS011;38650;44.536;18.664;2024-03-22T14:02:22;2.55;;;1.90;;
52764;SDS011;38650;44.536;18.664;2024-03-22T14:04:48;1.60;;;1.50;;
52764;SDS011;38650;44.536;18.664;2024-03-22T14:07:14;2.65;;;2.10;;
52764;SDS011;38650;44.536;18.664;2024-03-22T14:09:40;2.10;;;1.90;;
52764;SDS011;38650;44.536;18.664;2024-03-22T14:12:06;2.50;;;2.30;;
52764;SDS011;38650;44.536;18.664;2024-03-22T14:14:32;1.77;;;1.60;;
52764;SDS011;38650;44.536;18.664;2024-03-22T14:16:57;1.65;;;1.55;;
52764;SDS011;38650;44.536;18.664;2024-03-22T14:19:24;1.67;;;1.58;;
52764;SDS011;38650;44.536;18.664;2024-03-22T14:21:50;2.78;;;2.53;;
52764;SDS011;38650;44.536;18.664;2024-03-22T14:24:15;2.40;;;2.20;;